Time;durP1;ratioP1;P1;durP2;ratioP2;P2;SDS_P1;SDS_P2;PMS_P1;PMS_P2;Temp;Humidity;BMP_temperature;BMP_pressure;BME280_temperature;BME280_humidity;BME280_pressure;Samples;Min_cycle;Max_cycle;Signal;HPM_P1;HPM_P2
2024/03/29 00:01:15;;;;;;;5.38;1.95;;;;;;;8.66;60.53;94502.56;5116154;27;20039;-66
2024/03/29 00:03:41;;;;;;;5.25;1.70;;;;;;;8.81;61.34;94497.09;5151743;27;20019;-66
2024/03/29 00:06:07;;;;;;;5.30;1.90;;;;;;;8.31;60.32;94469.09;5119624;27;20038;-66
2024/03/29 00:08:33;;;;;;;4.97;1.52;;;;;;;8.50;59.69;94510.72;5119819;27;20041;-67
2024/03/29 00:10:58;;;;;;;3.38;1.67;;;;;;;8.57;60.42;94505.88;5155170;27;20470;-66
2024/03/29 00:13:23;;;;;;;3.65;1.65;;;;;;;8.63;62.13;94520.09;5119565;27;20038;-66
2024/03/29 00:15:49;;;;;;;4.03;2.00;;;;;;;8.28;62.30;94510.75;5136770;27;20027;-67
2024/03/29 00:18:14;;;;;;;4.75;2.55;;;;;;;8.59;63.50;94513.53;5136633;27;20023;-67
2024/03/29 00:20:39;;;;;;;4.80;1.60;;;;;;;8.57;61.37;94520.59;5136577;27;20427;-66
2024/03/29 00:23:05;;;;;;;4.35;1.40;;;;;;;8.38;62.48;94541.88;5119456;27;20391;-66
2024/03/29 00:25:30;;;;;;;4.15;1.55;;;;;;;8.40;61.28;94514.97;5119223;27;20039;-67
2024/03/29 00:27:56;;;;;;;6.95;1.55;;;;;;;8.46;61.65;94535.19;5136406;27;20033;-66
2024/03/29 00:30:21;;;;;;;4.88;1.45;;;;;;;8.55;62.30;94533.66;5136443;27;20035;-66
2024/03/29 00:32:47;;;;;;;4.55;1.80;;;;;;;8.64;62.28;94532.13;5136153;27;20034;-66
2024/03/29 00:35:14;;;;;;;3.72;1.60;;;;;;;8.68;60.31;94533.50;5136524;27;20442;-67
2024/03/29 00:37:39;;;;;;;7.22;1.70;;;;;;;8.29;61.56;94533.09;5136485;27;20048;-66
2024/03/29 00:40:05;;;;;;;3.22;1.38;;;;;;;8.36;63.30;94530.81;5136327;27;20249;-66
2024/03/29 00:42:30;;;;;;;6.25;1.90;;;;;;;8.37;62.94;94543.66;5154558;27;20031;-67
2024/03/29 00:44:56;;;;;;;4.07;1.20;;;;;;;8.05;63.48;94526.31;5136148;27;20034;-67
2024/03/29 00:47:21;;;;;;;4.32;1.50;;;;;;;8.15;62.67;94547.09;5154342;27;20018;-66
2024/03/29 00:49:47;;;;;;;3.45;1.20;;;;;;;8.38;62.49;94545.28;5154935;27;20037;-66
2024/03/29 00:52:12;;;;;;;4.72;1.10;;;;;;;8.27;62.24;94533.22;5135945;27;20030;-66
2024/03/29 00:54:37;;;;;;;4.53;1.10;;;;;;;8.32;60.96;94514.72;5118785;27;20027;-66
2024/03/29 00:57:03;;;;;;;5.50;1.40;;;;;;;8.57;59.47;94533.53;5136001;27;20457;-66
2024/03/29 00:59:29;;;;;;;2.70;1.17;;;;;;;8.39;60.36;94515.94;5154500;27;20484;-67
2024/03/29 01:01:54;;;;;;;3.63;1.30;;;;;;;8.66;61.46;94553.50;5136066;27;20613;-67
2024/03/29 01:04:20;;;;;;;4.75;1.35;;;;;;;8.53;62.72;94558.03;5154376;27;20022;-66
2024/03/29 01:06:45;;;;;;;4.65;1.15;;;;;;;8.73;62.08;94557.28;5135914;27;20083;-66
2024/03/29 01:09:13;;;;;;;3.47;1.17;;;;;;;8.64;60.80;94551.06;5135557;27;20019;-67
2024/03/29 01:11:39;;;;;;;4.40;1.90;;;;;;;8.59;62.50;94557.53;5154665;27;20034;-66
2024/03/29 01:14:07;;;;;;;2.55;1.02;;;;;;;8.42;60.57;94567.47;5135816;27;20027;-66
2024/03/29 01:16:33;;;;;;;3.05;1.30;;;;;;;8.43;61.72;94571.69;5135174;27;20035;-67
2024/03/29 01:18:58;;;;;;;3.60;0.98;;;;;;;8.32;60.05;94543.19;5153910;27;20105;-67
2024/03/29 01:21:25;;;;;;;2.90;0.90;;;;;;;8.63;59.40;94562.34;5135720;27;20400;-67
2024/03/29 01:23:50;;;;;;;4.45;1.65;;;;;;;8.75;59.90;94565.75;5135409;27;20130;-67
2024/03/29 01:26:17;;;;;;;3.38;1.20;;;;;;;8.67;60.98;94578.47;5154207;27;20477;-67
2024/03/29 01:28:43;;;;;;;3.67;1.25;;;;;;;8.41;62.27;94570.16;5118387;27;20037;-67
2024/03/29 01:31:08;;;;;;;2.78;0.85;;;;;;;8.57;61.17;94580.13;5118243;27;20035;-67
2024/03/29 01:33:37;;;;;;;2.03;0.77;;;;;;;8.32;61.19;94540.59;5117819;27;20121;-67
2024/03/29 01:36:06;;;;;;;2.45;0.95;;;;;;;8.54;60.27;94578.59;5154028;27;20030;-67
2024/03/29 01:38:31;;;;;;;2.40;1.00;;;;;;;8.47;59.77;94577.47;5117477;27;20030;-67
2024/03/29 01:40:57;;;;;;;2.83;0.98;;;;;;;8.66;58.45;94580.25;5118235;27;20035;-67
2024/03/29 01:43:22;;;;;;;2.53;0.98;;;;;;;8.69;60.14;94581.75;5118139;27;20037;-67
2024/03/29 01:45:51;;;;;;;1.45;0.70;;;;;;;8.59;61.27;94586.03;5135327;27;20066;-66
2024/03/29 01:48:17;;;;;;;5.30;1.38;;;;;;;8.60;61.50;94566.94;5118712;27;20027;-66
2024/03/29 01:50:43;;;;;;;3.40;1.10;;;;;;;8.43;61.94;94576.84;5134940;27;20034;-67
2024/03/29 01:53:08;;;;;;;6.05;1.55;;;;;;;8.41;63.02;94583.94;5117661;27;20420;-67
2024/03/29 01:55:34;;;;;;;3.05;1.00;;;;;;;8.52;63.15;94602.97;5117592;27;20381;-67
2024/03/29 01:58:00;;;;;;;3.28;1.33;;;;;;;8.47;62.81;94588.63;5100682;27;20046;-67
2024/03/29 02:00:25;;;;;;;2.88;0.98;;;;;;;8.39;63.54;94592.78;5134600;27;20038;-67
2024/03/29 02:02:51;;;;;;;3.50;1.30;;;;;;;8.06;64.32;94599.56;5134719;27;20034;-67
2024/03/29 02:05:16;;;;;;;2.10;0.77;;;;;;;8.33;64.35;94609.56;5134652;27;20131;-67
2024/03/29 02:07:42;;;;;;;2.50;0.93;;;;;;;8.24;64.10;94615.44;5134614;27;20034;-66
2024/03/29 02:10:10;;;;;;;1.30;0.68;;;;;;;8.17;64.50;94614.25;5134532;27;20034;-66
2024/03/29 02:12:35;;;;;;;1.60;0.80;;;;;;;7.97;64.49;94621.78;5117279;27;20609;-67
2024/03/29 02:15:02;;;;;;;2.17;1.15;;;;;;;7.69;64.66;94622.19;5134221;27;20027;-66
2024/03/29 02:17:28;;;;;;;3.03;0.80;;;;;;;7.57;65.90;94639.44;5117496;27;20167;-66
2024/03/29 02:19:53;;;;;;;2.35;0.80;;;;;;;7.53;66.73;94654.34;5134288;27;20102;-67
2024/03/29 02:22:18;;;;;;;4.60;0.80;;;;;;;7.53;66.26;94649.19;5134241;27;20038;-67
2024/03/29 02:24:44;;;;;;;3.00;0.90;;;;;;;7.32;66.86;94642.97;5117121;27;20026;-66
2024/03/29 02:27:09;;;;;;;3.83;0.80;;;;;;;7.16;67.59;94658.78;5116710;27;20492;-67
2024/03/29 02:29:38;;;;;;;4.28;0.90;;;;;;;7.31;67.48;94670.59;5133730;27;20026;-66
2024/03/29 02:32:04;;;;;;;1.90;0.93;;;;;;;7.22;67.82;94680.78;5134600;27;20023;-67
2024/03/29 02:34:29;;;;;;;2.90;1.00;;;;;;;7.40;66.98;94689.78;5152630;27;20019;-67
2024/03/29 02:36:56;;;;;;;4.63;1.95;;;;;;;7.33;66.34;94693.75;5134551;27;20113;-66
2024/03/29 02:39:22;;;;;;;3.63;1.33;;;;;;;7.19;67.12;94680.97;5134529;27;20130;-66
2024/03/29 02:41:47;;;;;;;2.75;1.17;;;;;;;7.02;66.36;94680.44;5133855;27;20118;-66
2024/03/29 02:44:15;;;;;;;2.25;0.95;;;;;;;7.08;66.25;94698.06;5117006;27;20019;-66
2024/03/29 02:46:41;;;;;;;1.90;0.82;;;;;;;7.38;67.61;94707.13;5134249;27;20063;-67
2024/03/29 02:49:06;;;;;;;5.15;1.10;;;;;;;7.35;67.73;94709.94;5152598;27;20059;-67
2024/03/29 02:51:32;;;;;;;1.75;0.75;;;;;;;7.26;67.36;94708.03;5134239;27;20035;-67
2024/03/29 02:53:57;;;;;;;4.30;0.70;;;;;;;7.25;66.60;94704.63;5152560;27;20026;-67
2024/03/29 02:56:23;;;;;;;1.73;0.77;;;;;;;7.33;65.69;94709.25;5134015;27;20396;-67
2024/03/29 02:58:48;;;;;;;5.47;1.10;;;;;;;7.45;64.93;94708.34;5116796;27;20022;-67
2024/03/29 03:01:14;;;;;;;3.40;1.40;;;;;;;7.48;64.72;94702.97;5133874;27;20443;-67
2024/03/29 03:03:39;;;;;;;6.10;2.10;;;;;;;7.64;64.26;94707.03;5133832;27;20404;-67
2024/03/29 03:06:05;;;;;;;3.25;1.30;;;;;;;7.74;63.63;94718.34;5133774;27;20023;-67
2024/03/29 03:11:14;;;;;;;3.47;0.90;;;;;;;7.87;63.12;94718.28;5136621;27;20083;-66
2024/03/29 03:13:39;;;;;;;1.92;0.98;;;;;;;7.93;62.12;94713.47;5152088;27;20031;-67
2024/03/29 03:16:05;;;;;;;1.95;0.80;;;;;;;8.01;61.99;94721.47;5133979;27;20038;-67
2024/03/29 03:18:31;;;;;;;3.60;1.20;;;;;;;8.00;61.75;94719.84;5116707;27;20031;-66
2024/03/29 03:20:57;;;;;;;2.85;1.33;;;;;;;8.23;60.94;94722.47;5116761;27;20465;-67
2024/03/29 03:23:23;;;;;;;38.22;13.40;;;;;;;8.33;62.68;94727.78;5116635;27;20111;-66
2024/03/29 03:26:00;;;;;;;6.07;1.20;;;;;;;8.20;62.55;94731.28;5152535;27;20027;-66
2024/03/29 03:28:25;;;;;;;6.88;2.50;;;;;;;8.21;62.54;94745.88;5133282;27;20075;-67
2024/03/29 03:30:51;;;;;;;4.32;1.40;;;;;;;8.20;61.74;94759.75;5152470;27;20027;-67
2024/03/29 03:33:16;;;;;;;2.70;1.20;;;;;;;8.33;60.28;94746.75;5151837;27;20215;-66
2024/03/29 03:35:42;;;;;;;5.07;1.02;;;;;;;8.48;59.73;94739.59;5099358;27;20035;-66
2024/03/29 03:38:08;;;;;;;4.78;1.20;;;;;;;8.41;60.08;94739.25;5116368;27;20086;-66
2024/03/29 03:40:34;;;;;;;5.00;1.70;;;;;;;8.49;60.44;94757.59;5102445;27;20081;-66
2024/03/29 03:42:59;;;;;;;3.38;1.33;;;;;;;8.53;60.43;94759.97;5137270;27;20072;-66
2024/03/29 03:45:25;;;;;;;3.80;1.23;;;;;;;8.56;60.31;94757.16;5137560;27;20056;-66
2024/03/29 03:47:50;;;;;;;6.47;2.13;;;;;;;8.60;59.94;94774.91;5137091;27;20019;-67
2024/03/29 03:50:15;;;;;;;5.25;2.17;;;;;;;8.56;60.83;94763.16;5120114;27;20114;-66
2024/03/29 03:52:41;;;;;;;9.00;2.97;;;;;;;8.60;60.87;94772.31;5102790;27;20468;-66
2024/03/29 03:55:07;;;;;;;5.97;2.00;;;;;;;8.54;61.28;94769.38;5155814;27;20023;-66
2024/03/29 03:57:33;;;;;;;7.60;2.13;;;;;;;8.53;61.45;94780.69;5137045;27;20495;-66
2024/03/29 03:59:59;;;;;;;4.80;1.40;;;;;;;8.33;60.54;94782.97;5137402;27;20022;-66
2024/03/29 04:02:24;;;;;;;2.75;1.20;;;;;;;8.34;60.20;94789.78;5155548;27;20029;-66
2024/03/29 04:04:50;;;;;;;3.55;1.10;;;;;;;8.39;59.92;94803.25;5136844;27;20023;-67
2024/03/29 04:07:15;;;;;;;3.00;1.00;;;;;;;8.42;59.65;94797.84;5119769;27;20050;-66
2024/03/29 04:09:41;;;;;;;3.13;1.00;;;;;;;8.47;59.94;94803.50;5136831;27;20034;-66
2024/03/29 04:12:06;;;;;;;4.32;0.95;;;;;;;8.47;60.07;94800.09;5156080;27;20075;-66
2024/03/29 04:14:32;;;;;;;2.88;1.00;;;;;;;8.16;60.42;94767.84;5136759;27;20022;-66
2024/03/29 04:16:57;;;;;;;2.55;0.93;;;;;;;8.49;59.84;94813.72;5103072;27;20408;-67
2024/03/29 04:19:22;;;;;;;2.28;1.00;;;;;;;8.47;60.12;94826.81;5119390;27;20018;-66
2024/03/29 04:21:48;;;;;;;1.95;1.10;;;;;;;8.54;59.65;94826.34;5155587;27;20107;-66
2024/03/29 04:24:13;;;;;;;2.53;1.20;;;;;;;8.58;60.06;94833.78;5119377;27;20023;-66
2024/03/29 04:26:39;;;;;;;1.85;0.70;;;;;;;8.61;59.40;94823.19;5155004;27;20484;-67
2024/03/29 04:29:04;;;;;;;4.18;0.93;;;;;;;8.61;58.93;94830.97;5154929;27;20094;-67
2024/03/29 04:31:30;;;;;;;2.95;0.90;;;;;;;8.61;59.23;94824.94;5102404;27;20038;-67
2024/03/29 04:33:55;;;;;;;4.22;1.50;;;;;;;8.73;58.69;94826.63;5102187;27;20022;-67
2024/03/29 04:36:21;;;;;;;2.63;1.23;;;;;;;8.73;59.57;94842.16;5155334;27;20035;-67
2024/03/29 04:38:47;;;;;;;3.45;1.33;;;;;;;8.48;60.04;94814.69;5136096;27;20057;-67
2024/03/29 04:41:12;;;;;;;2.08;0.98;;;;;;;8.68;59.75;94839.09;5154899;27;20026;-67
2024/03/29 04:43:39;;;;;;;3.28;0.90;;;;;;;8.81;59.73;94850.19;5154741;27;20381;-67
2024/03/29 04:46:11;;;;;;;2.50;0.80;;;;;;;8.74;58.62;94851.56;5119127;27;20042;-67
2024/03/29 04:48:41;;;;;;;6.70;1.73;;;;;;;8.65;59.21;94849.69;5136400;27;20050;-67
2024/03/29 04:51:07;;;;;;;4.63;1.38;;;;;;;8.77;59.79;94864.28;5135324;27;20034;-67
2024/03/29 04:53:32;;;;;;;2.13;0.80;;;;;;;8.69;59.40;94854.53;5118839;27;20030;-67
2024/03/29 04:55:58;;;;;;;1.80;0.85;;;;;;;8.84;58.88;94872.44;5102056;27;20324;-67
2024/03/29 04:58:24;;;;;;;3.00;1.10;;;;;;;8.75;60.33;94863.59;5154427;27;20485;-67
2024/03/29 05:00:49;;;;;;;2.85;1.33;;;;;;;8.86;59.54;94871.41;5135921;27;20403;-67
2024/03/29 05:03:17;;;;;;;3.25;1.17;;;;;;;8.86;60.25;94873.97;5118819;27;20048;-67
2024/03/29 05:05:42;;;;;;;4.22;1.00;;;;;;;8.78;61.87;94881.50;5118642;27;20034;-67
2024/03/29 05:08:08;;;;;;;2.53;1.08;;;;;;;8.81;59.13;94891.63;5154605;27;20031;-67
2024/03/29 05:10:34;;;;;;;2.72;0.80;;;;;;;9.27;58.47;94888.13;5135759;27;20039;-67
2024/03/29 05:13:00;;;;;;;3.78;1.00;;;;;;;9.78;57.23;94879.88;5135789;27;20019;-67
2024/03/29 05:15:26;;;;;;;3.00;0.95;;;;;;;10.74;52.62;94839.28;5135647;27;20037;-67
2024/03/29 05:17:53;;;;;;;4.68;1.00;;;;;;;11.97;50.58;94880.91;5118511;27;20023;-67
2024/03/29 05:20:18;;;;;;;3.58;1.27;;;;;;;12.87;49.39;94885.06;5118642;27;20075;-67
2024/03/29 05:22:44;;;;;;;3.72;0.90;;;;;;;13.94;45.91;94882.13;5153951;27;20034;-67
2024/03/29 05:25:09;;;;;;;4.25;1.02;;;;;;;14.30;45.03;94890.84;5153856;27;20039;-67
2024/03/29 05:27:34;;;;;;;4.28;1.40;;;;;;;14.75;43.79;94890.00;5118297;27;20076;-67
2024/03/29 05:30:00;;;;;;;2.95;1.90;;;;;;;14.70;44.70;94893.06;5135383;27;20019;-67
2024/03/29 05:32:26;;;;;;;3.72;1.52;;;;;;;14.51;45.19;94890.56;5135057;27;20404;-67
2024/03/29 05:34:51;;;;;;;2.92;0.98;;;;;;;14.42;44.94;94894.06;5135171;27;20111;-67
2024/03/29 05:37:18;;;;;;;4.55;1.45;;;;;;;14.51;46.03;94903.63;5117901;27;20033;-67
2024/03/29 05:39:43;;;;;;;2.38;1.05;;;;;;;14.34;46.47;94902.66;5153697;27;20038;-67
2024/03/29 05:42:09;;;;;;;3.25;1.08;;;;;;;14.56;46.77;94906.66;5134993;27;20111;-67
2024/03/29 05:44:36;;;;;;;2.53;1.00;;;;;;;14.34;47.65;94914.88;5153601;27;20019;-68
2024/03/29 05:47:04;;;;;;;2.97;0.70;;;;;;;14.02;48.38;94913.56;5135291;27;20702;-67
2024/03/29 05:49:30;;;;;;;1.95;0.85;;;;;;;14.28;48.12;94904.06;5153518;27;20079;-67
2024/03/29 05:51:55;;;;;;;2.08;0.65;;;;;;;14.47;47.64;94897.06;5134928;27;20042;-67
2024/03/29 05:54:22;;;;;;;1.58;0.70;;;;;;;14.61;47.72;94893.97;5153429;27;20019;-67
2024/03/29 05:56:48;;;;;;;4.22;0.80;;;;;;;14.62;47.98;94882.53;5118034;27;20035;-67
2024/03/29 05:59:13;;;;;;;2.78;0.88;;;;;;;14.77;47.62;94893.28;5134896;27;20044;-69
2024/03/29 06:01:39;;;;;;;3.38;0.90;;;;;;;14.49;47.99;94864.59;5117526;27;20409;-67
2024/03/29 06:04:08;;;;;;;2.20;0.73;;;;;;;14.94;47.35;94894.25;5134606;27;20030;-67
2024/03/29 06:06:34;;;;;;;3.08;0.77;;;;;;;15.31;46.61;94901.03;5135143;27;20560;-67
2024/03/29 06:09:00;;;;;;;2.42;1.10;;;;;;;15.45;46.40;94910.13;5117619;27;20038;-67
2024/03/29 06:11:25;;;;;;;2.60;0.90;;;;;;;15.55;46.18;94914.28;5153408;27;20468;-67
2024/03/29 06:19:09;;;;;;;2.63;0.80;;;;;;;15.99;44.26;94922.06;5137159;27;20535;-67
2024/03/29 06:21:40;;;;;;;3.30;1.05;;;;;;;16.04;44.06;94930.25;5152836;27;20039;-67
2024/03/29 06:24:07;;;;;;;4.68;1.00;;;;;;;16.25;41.46;94926.41;5152767;27;20045;-68
2024/03/29 06:26:33;;;;;;;5.68;1.02;;;;;;;16.46;39.12;94929.41;5117742;27;20066;-67
2024/03/29 06:28:58;;;;;;;4.07;0.85;;;;;;;16.53;39.12;94906.81;5152638;27;20031;-68
2024/03/29 06:31:24;;;;;;;3.97;1.13;;;;;;;16.74;37.85;94923.88;5153258;27;20030;-67
2024/03/29 06:33:49;;;;;;;2.35;0.93;;;;;;;16.87;38.23;94936.56;5133983;27;20038;-67
2024/03/29 06:36:15;;;;;;;2.75;1.10;;;;;;;16.69;38.40;94934.06;5117294;27;20034;-67
2024/03/29 06:38:40;;;;;;;6.38;1.70;;;;;;;16.10;39.26;94928.78;5133841;27;20412;-68
2024/03/29 06:41:05;;;;;;;4.65;1.40;;;;;;;16.70;39.75;94930.44;5134301;27;20031;-68
2024/03/29 06:43:31;;;;;;;3.45;1.10;;;;;;;16.82;38.06;94910.81;5134175;27;20030;-68
2024/03/29 06:45:58;;;;;;;5.03;1.40;;;;;;;17.14;38.71;94933.63;5117102;27;20038;-68
2024/03/29 06:48:24;;;;;;;5.57;1.75;;;;;;;16.80;39.87;94915.41;5134373;27;20053;-67
2024/03/29 06:50:49;;;;;;;6.25;1.92;;;;;;;17.50;38.29;94942.97;5134293;27;20042;-67
2024/03/29 06:53:15;;;;;;;6.35;2.50;;;;;;;17.78;37.75;94935.53;5152333;27;20023;-67
2024/03/29 06:55:41;;;;;;;8.10;2.95;;;;;;;17.77;37.08;94932.03;5152502;27;20042;-68
2024/03/29 06:58:07;;;;;;;8.88;1.50;;;;;;;17.75;36.52;94926.16;5135604;27;20547;-68
2024/03/29 07:00:32;;;;;;;6.88;1.70;;;;;;;18.38;36.58;94936.78;5132829;27;20031;-68
2024/03/29 07:02:58;;;;;;;16.58;2.20;;;;;;;18.64;36.09;94942.59;5132861;27;20047;-68
2024/03/29 07:05:23;;;;;;;7.28;1.40;;;;;;;18.70;36.37;94939.25;5151076;27;20034;-68
2024/03/29 07:07:48;;;;;;;6.90;1.25;;;;;;;19.00;35.69;94942.06;5152318;27;20717;-67
2024/03/29 07:10:14;;;;;;;18.02;7.57;;;;;;;17.86;36.81;94949.47;5133841;27;20450;-68
2024/03/29 07:12:39;;;;;;;10.35;2.10;;;;;;;17.62;37.12;94946.88;5133619;27;20024;-68
2024/03/29 07:15:05;;;;;;;3.97;1.52;;;;;;;17.99;36.16;94948.13;5118612;27;20031;-68
2024/03/29 07:17:31;;;;;;;15.40;7.47;;;;;;;17.85;35.94;94942.56;5156692;27;20019;-69
2024/03/29 07:19:56;;;;;;;10.40;5.13;;;;;;;18.34;35.32;94946.03;5137769;27;20015;-68
2024/03/29 07:22:22;;;;;;;17.63;8.52;;;;;;;18.38;35.77;94952.56;5119983;27;20026;-66
2024/03/29 07:24:47;;;;;;;13.05;5.70;;;;;;;17.86;35.71;94954.75;5156248;27;20499;-65
2024/03/29 07:27:16;;;;;;;18.73;7.85;;;;;;;18.18;35.94;94954.78;5137861;27;20594;-68
2024/03/29 07:29:43;;;;;;;14.32;5.40;;;;;;;17.81;35.40;94950.97;5138129;27;20030;-66
2024/03/29 07:32:09;;;;;;;8.98;2.45;;;;;;;18.37;35.42;94956.19;5138112;27;20045;-67
2024/03/29 07:34:34;;;;;;;6.70;1.85;;;;;;;18.12;35.51;94937.09;5156224;27;20022;-66
2024/03/29 07:37:00;;;;;;;2.85;1.48;;;;;;;18.65;35.62;94953.91;5120697;27;20439;-66
2024/03/29 07:39:25;;;;;;;20.27;7.80;;;;;;;18.13;35.16;94943.97;5155984;27;20039;-66
2024/03/29 07:41:51;;;;;;;3.90;1.77;;;;;;;17.33;36.20;94931.66;5156713;27;20087;-69
2024/03/29 07:44:16;;;;;;;5.63;1.45;;;;;;;17.35;36.46;94948.84;5137639;27;20075;-69
2024/03/29 07:46:42;;;;;;;26.85;11.25;;;;;;;17.86;36.98;94940.78;5156144;27;20030;-68
2024/03/29 07:49:07;;;;;;;9.10;3.47;;;;;;;18.63;36.21;94946.19;5155974;27;20512;-66
2024/03/29 07:51:33;;;;;;;3.83;1.63;;;;;;;18.84;34.10;94944.78;5155970;27;20038;-66
2024/03/29 07:53:59;;;;;;;4.88;1.50;;;;;;;18.52;34.61;94952.66;5137548;27;20408;-69
2024/03/29 07:56:27;;;;;;;12.10;4.75;;;;;;;18.44;35.20;94957.13;5155874;27;20452;-68
2024/03/29 07:58:53;;;;;;;6.60;2.83;;;;;;;18.20;35.70;94939.69;5137604;27;20525;-68
2024/03/29 08:01:22;;;;;;;29.63;11.75;;;;;;;18.36;34.87;94942.25;5137169;27;20035;-67
2024/03/29 08:03:50;;;;;;;7.00;2.45;;;;;;;18.49;34.83;94944.28;5120513;27;20023;-67
2024/03/29 08:06:18;;;;;;;9.63;3.83;;;;;;;17.93;35.20;94943.53;5155760;27;20038;-68
2024/03/29 08:08:44;;;;;;;23.05;8.10;;;;;;;18.21;35.85;94947.38;5137783;27;20035;-67
2024/03/29 08:11:10;;;;;;;5.30;1.33;;;;;;;18.66;33.63;94950.28;5120138;27;20566;-67
2024/03/29 08:13:35;;;;;;;9.10;2.85;;;;;;;18.41;34.58;94936.44;5136793;27;20531;-67
2024/03/29 08:16:01;;;;;;;5.35;1.17;;;;;;;18.36;34.52;94941.41;5119695;27;20035;-67
2024/03/29 08:18:27;;;;;;;10.05;3.25;;;;;;;18.10;35.31;94924.09;5102638;27;20502;-67
2024/03/29 08:20:53;;;;;;;8.63;1.92;;;;;;;18.86;33.97;94924.38;5119528;27;20037;-67
2024/03/29 08:23:19;;;;;;;7.18;1.35;;;;;;;18.97;34.07;94937.13;5102543;27;20018;-67
2024/03/29 08:25:44;;;;;;;3.25;1.10;;;;;;;19.28;33.57;94933.59;5136881;27;20087;-67
2024/03/29 08:28:10;;;;;;;24.95;11.48;;;;;;;19.16;33.80;94925.28;5119317;27;20034;-68
2024/03/29 08:30:36;;;;;;;8.27;2.40;;;;;;;18.98;33.73;94923.78;5136874;27;20027;-67
2024/03/29 08:33:04;;;;;;;12.88;4.13;;;;;;;18.86;34.05;94919.94;5119274;27;20030;-67
2024/03/29 08:35:33;;;;;;;9.18;2.60;;;;;;;19.50;34.67;94913.47;5136833;27;20040;-68
2024/03/29 08:37:59;;;;;;;5.18;1.40;;;;;;;19.79;32.51;94915.38;5136655;27;20027;-67
2024/03/29 08:40:32;;;;;;;7.20;1.25;;;;;;;19.61;33.52;94908.59;5136743;27;20090;-67
2024/03/29 08:42:57;;;;;;;6.13;1.27;;;;;;;19.51;33.46;94909.88;5120499;27;20023;-67
2024/03/29 08:45:23;;;;;;;4.95;1.30;;;;;;;19.23;33.43;94907.00;5154965;27;20147;-67
2024/03/29 08:47:48;;;;;;;4.75;1.55;;;;;;;19.16;34.26;94905.03;5136207;27;20052;-67
2024/03/29 08:50:14;;;;;;;3.17;1.10;;;;;;;19.57;32.82;94899.41;5119459;27;20035;-67
2024/03/29 08:52:39;;;;;;;4.43;1.10;;;;;;;19.71;32.65;94895.19;5154376;27;20030;-67
2024/03/29 08:55:06;;;;;;;3.60;1.20;;;;;;;19.67;32.98;94879.91;5136448;27;20030;-67
2024/03/29 08:57:32;;;;;;;6.72;1.45;;;;;;;19.76;32.76;94902.56;5118790;27;20060;-67
2024/03/29 08:59:57;;;;;;;5.30;1.25;;;;;;;19.30;33.57;94900.00;5118786;27;20037;-68
2024/03/29 09:02:23;;;;;;;5.63;1.20;;;;;;;19.67;33.28;94888.66;5154088;27;20022;-67
2024/03/29 09:04:48;;;;;;;7.07;1.73;;;;;;;19.45;33.78;94887.69;5118732;27;20049;-67
2024/03/29 09:07:14;;;;;;;3.25;1.35;;;;;;;19.85;32.82;94875.91;5118688;27;20023;-67
2024/03/29 09:09:41;;;;;;;5.13;1.40;;;;;;;19.97;31.75;94878.09;5135723;27;20023;-67
2024/03/29 09:12:08;;;;;;;3.42;1.30;;;;;;;20.00;31.70;94878.56;5154646;27;20035;-67
2024/03/29 09:14:33;;;;;;;4.00;1.23;;;;;;;20.09;31.06;94872.19;5135770;27;20026;-68
2024/03/29 09:16:58;;;;;;;3.15;1.25;;;;;;;19.79;31.83;94876.66;5154845;27;20041;-67
2024/03/29 09:19:24;;;;;;;8.18;1.40;;;;;;;20.09;31.76;94868.72;5154092;27;20030;-67
2024/03/29 09:21:50;;;;;;;4.70;1.20;;;;;;;19.84;32.95;94868.22;5154707;27;20465;-68
2024/03/29 09:24:17;;;;;;;6.25;1.58;;;;;;;19.44;32.90;94859.69;5135309;27;20021;-68
2024/03/29 09:26:43;;;;;;;5.65;1.20;;;;;;;19.78;32.27;94861.00;5119030;27;20033;-68
2024/03/29 09:29:09;;;;;;;7.28;1.98;;;;;;;20.05;31.91;94852.44;5135200;27;20022;-68
2024/03/29 09:31:35;;;;;;;3.95;1.27;;;;;;;20.20;31.22;94857.69;5118478;27;20087;-67
2024/03/29 09:34:00;;;;;;;4.95;1.27;;;;;;;20.33;32.01;94843.03;5118105;27;20023;-67
2024/03/29 09:36:25;;;;;;;8.55;1.30;;;;;;;20.15;30.58;94848.72;5135535;27;20037;-67
2024/03/29 09:38:51;;;;;;;4.65;1.20;;;;;;;20.30;30.75;94838.94;5134520;27;20526;-67
2024/03/29 09:41:20;;;;;;;4.03;1.38;;;;;;;20.24;30.82;94824.66;5135327;27;20035;-67
2024/03/29 09:43:46;;;;;;;3.47;1.15;;;;;;;20.34;30.82;94815.63;5135716;27;20023;-67
2024/03/29 09:46:15;;;;;;;5.20;1.15;;;;;;;20.36;31.14;94829.44;5135363;27;20061;-67
2024/03/29 09:48:41;;;;;;;6.93;1.38;;;;;;;20.26;30.61;94820.03;5118149;27;20531;-67
2024/03/29 09:51:07;;;;;;;5.57;1.30;;;;;;;20.21;31.08;94818.97;5135133;27;20539;-67
2024/03/29 09:53:36;;;;;;;4.68;1.55;;;;;;;20.13;31.25;94811.97;5117770;27;20031;-68
2024/03/29 09:56:05;;;;;;;8.23;1.25;;;;;;;19.50;31.31;94773.84;5117799;27;20034;-67
2024/03/29 09:58:34;;;;;;;6.93;1.42;;;;;;;19.95;31.92;94812.38;5153243;27;20018;-67
2024/03/29 10:01:00;;;;;;;4.57;1.30;;;;;;;20.01;32.97;94802.91;5134549;27;20036;-67
2024/03/29 10:03:29;;;;;;;6.65;1.83;;;;;;;19.94;32.56;94802.00;5117728;27;20113;-67
2024/03/29 10:06:01;;;;;;;6.30;1.50;;;;;;;19.80;32.10;94795.75;5118812;27;20118;-67
2024/03/29 10:08:27;;;;;;;9.65;1.92;;;;;;;19.83;32.27;94795.38;5117575;27;20022;-67
2024/03/29 10:10:53;;;;;;;6.10;1.70;;;;;;;19.83;31.75;94800.66;5117789;27;20037;-67
2024/03/29 10:13:19;;;;;;;9.40;1.70;;;;;;;19.62;31.61;94789.03;5134733;27;20500;-68
2024/03/29 10:15:49;;;;;;;6.97;2.00;;;;;;;19.83;33.04;94795.38;5134483;27;20023;-67
2024/03/29 10:18:15;;;;;;;10.30;1.90;;;;;;;20.27;32.36;94799.75;5117884;27;20035;-67
2024/03/29 10:20:40;;;;;;;7.30;1.70;;;;;;;20.33;31.96;94793.72;5152939;27;20399;-68
2024/03/29 10:23:07;;;;;;;5.97;1.50;;;;;;;20.43;33.69;94796.88;5134442;27;20408;-67
2024/03/29 10:25:33;;;;;;;5.57;2.15;;;;;;;20.09;31.30;94785.16;5134131;27;20126;-68
2024/03/29 10:27:59;;;;;;;10.80;1.70;;;;;;;20.19;31.76;94789.31;5134482;27;20030;-67
2024/03/29 10:30:25;;;;;;;7.65;1.30;;;;;;;20.52;30.17;94782.53;5117056;27;20557;-67
2024/03/29 10:32:50;;;;;;;5.60;2.00;;;;;;;20.45;31.24;94778.22;5117017;27;20034;-68
2024/03/29 10:35:15;;;;;;;8.00;1.70;;;;;;;20.26;31.00;94790.22;5134266;27;20031;-68
2024/03/29 10:37:43;;;;;;;5.07;1.38;;;;;;;20.59;29.83;94758.91;5152597;27;20019;-67
2024/03/29 10:40:09;;;;;;;4.10;1.40;;;;;;;20.93;30.13;94787.19;5131087;27;20058;-68
2024/03/29 10:42:36;;;;;;;5.28;1.70;;;;;;;20.94;30.57;94782.72;5131682;27;20031;-67
2024/03/29 10:45:02;;;;;;;4.30;1.30;;;;;;;21.06;30.10;94780.34;5113750;27;20444;-67
2024/03/29 10:47:27;;;;;;;8.13;2.13;;;;;;;20.86;29.92;94765.19;5130621;27;20027;-67
2024/03/29 10:49:53;;;;;;;7.13;1.42;;;;;;;20.79;30.14;94769.63;5129773;27;20031;-68
2024/03/29 10:52:18;;;;;;;7.13;1.65;;;;;;;20.57;30.68;94754.81;5119518;27;20036;-67
2024/03/29 10:54:44;;;;;;;5.40;1.85;;;;;;;20.78;30.31;94770.59;5076239;28;20027;-67
2024/03/29 10:57:16;;;;;;;8.32;2.20;;;;;;;20.43;31.16;94770.50;5110049;28;20518;-67
2024/03/29 10:59:47;;;;;;;8.95;2.00;;;;;;;20.49;30.65;94756.53;5093578;28;20112;-67
2024/03/29 11:02:13;;;;;;;7.30;1.80;;;;;;;20.45;30.80;94763.22;5100399;28;20450;-68
2024/03/29 11:04:39;;;;;;;6.57;2.05;;;;;;;20.40;31.73;94760.31;5131688;27;20118;-68
2024/03/29 11:07:06;;;;;;;8.55;1.83;;;;;;;20.10;31.54;94743.78;5130461;28;20502;-67
2024/03/29 11:09:32;;;;;;;15.90;1.92;;;;;;;20.31;31.22;94756.19;5113359;28;20035;-68
2024/03/29 11:11:57;;;;;;;8.30;1.52;;;;;;;20.32;30.98;94757.81;5130012;28;20102;-67
2024/03/29 11:14:33;;;;;;;6.65;1.77;;;;;;;20.76;30.60;94770.00;5130451;28;20035;-67
2024/03/29 11:16:59;;;;;;;5.68;1.65;;;;;;;20.73;31.20;94767.75;5130657;28;20027;-67
2024/03/29 11:19:24;;;;;;;3.92;1.70;;;;;;;20.81;30.20;94762.34;5130373;28;20535;-67
2024/03/29 11:21:50;;;;;;;6.45;1.77;;;;;;;20.59;30.19;94752.78;5132244;27;20027;-67
2024/03/29 11:24:21;;;;;;;8.35;1.70;;;;;;;20.67;30.13;94752.66;5130131;28;20045;-69
2024/03/29 11:26:47;;;;;;;6.88;1.98;;;;;;;20.52;30.18;94748.25;5130523;28;20038;-67
2024/03/29 11:29:20;;;;;;;5.45;1.55;;;;;;;20.46;29.91;94743.72;5130173;28;20031;-67
2024/03/29 11:31:47;;;;;;;7.05;2.03;;;;;;;20.34;32.16;94744.41;5130445;28;20023;-67
2024/03/29 11:34:12;;;;;;;5.70;1.45;;;;;;;20.37;31.73;94733.50;5113013;28;20565;-67
2024/03/29 11:36:39;;;;;;;7.85;1.80;;;;;;;20.39;30.72;94758.66;5130402;28;20031;-67
2024/03/29 11:39:04;;;;;;;13.75;2.13;;;;;;;20.40;30.99;94748.94;5129979;28;20051;-68